Time;durP1;ratioP1;P1;durP2;ratioP2;P2;SDS_P1;SDS_P2;PMS_P1;PMS_P2;Temp;Humidity;BMP_temperature;BMP_pressure;BME280_temperature;BME280_humidity;BME280_pressure;Samples;Min_cycle;Max_cycle;Signal;HPM_P1;HPM_P2
2021/07/01 00:00:52;;;;;;;0.60;0.50;;;;;;;15.85;82.60;95509.03;4976455;28;20274;-84
2021/07/01 00:03:20;;;;;;;0.60;0.60;;;;;;;15.70;81.96;95502.56;4955896;29;20209;-84
2021/07/01 00:05:47;;;;;;;5.00;0.77;;;;;;;15.72;82.37;95501.34;4956087;29;20229;-84
2021/07/01 00:08:14;;;;;;;0.73;0.68;;;;;;;15.72;82.32;95503.94;4968537;28;20210;-85
2021/07/01 00:10:41;;;;;;;0.65;0.65;;;;;;;15.65;82.57;95512.78;4975441;28;20192;-84
2021/07/01 00:13:09;;;;;;;0.70;0.70;;;;;;;15.62;81.78;95505.41;4974924;28;20204;-84
2021/07/01 00:15:41;;;;;;;0.57;0.57;;;;;;;15.56;82.26;95507.06;4975000;28;20235;-85
2021/07/01 00:18:07;;;;;;;0.60;0.60;;;;;;;15.57;82.83;95508.66;4974877;28;20204;-85
2021/07/01 00:20:35;;;;;;;2.83;0.60;;;;;;;15.49;82.36;95504.47;4976103;28;20212;-85
2021/07/01 00:23:02;;;;;;;0.60;0.60;;;;;;;15.45;82.50;95503.28;4975105;28;20573;-84
2021/07/01 00:25:29;;;;;;;0.60;0.60;;;;;;;15.41;83.08;95502.09;4974776;28;20391;-84
2021/07/01 00:27:55;;;;;;;1.40;0.70;;;;;;;15.47;82.97;95508.25;4974833;28;20232;-85
2021/07/01 00:30:23;;;;;;;1.33;0.60;;;;;;;15.54;82.09;95502.03;4975833;28;20207;-85
2021/07/01 00:32:53;;;;;;;0.53;0.53;;;;;;;15.58;82.17;95499.06;4975126;28;20484;-85
2021/07/01 00:35:20;;;;;;;0.60;0.60;;;;;;;15.59;81.55;95509.22;4975472;28;20759;-85
2021/07/01 00:37:50;;;;;;;1.37;0.90;;;;;;;15.54;80.99;95504.63;4974539;28;20227;-84
2021/07/01 00:40:19;;;;;;;4.73;0.63;;;;;;;15.43;81.79;95507.09;4975212;28;20227;-84
2021/07/01 00:42:48;;;;;;;0.70;0.70;;;;;;;15.32;81.14;95505.16;4974718;28;20628;-84
2021/07/01 00:45:14;;;;;;;1.10;0.70;;;;;;;15.20;81.16;95503.19;4975217;28;20204;-86
2021/07/01 00:47:42;;;;;;;2.13;0.80;;;;;;;15.16;82.64;95512.41;4973994;28;20256;-86
2021/07/01 00:54:01;;;;;;;1.87;0.90;;;;;;;15.54;82.19;95506.44;4910730;29;20310;-85
2021/07/01 01:39:38;;;;;;;1.67;1.00;;;;;;;15.92;76.36;95503.00;4858217;29;20301;-85
2021/07/01 01:43:05;;;;;;;;;;;;;;;;;;;;;
2021/07/01 01:45:56;;;;;;;2.07;1.20;;;;;;;16.18;75.26;95502.78;4885415;29;20207;-85
2021/07/01 01:52:42;;;;;;;0.68;0.68;;;;;;;16.11;76.61;95502.84;4878051;29;20206;-85
2021/07/01 02:11:44;;;;;;;1.00;0.90;;;;;;;16.09;78.06;95511.88;4850666;29;20790;-86
2021/07/01 02:14:36;;;;;;;1.90;0.90;;;;;;;16.03;78.99;95504.91;4914850;29;20241;-86
2021/07/01 02:17:14;;;;;;;0.70;0.70;;;;;;;15.96;77.88;95507.59;4916973;29;20222;-85
2021/07/01 02:19:56;;;;;;;1.02;0.70;;;;;;;16.02;78.92;95511.91;4916000;29;20202;-85
2021/07/01 02:49:56;;;;;;;;;;;;;;;;;;;;;
2021/07/01 03:00:16;;;;;;;0.90;0.90;;;;;;;15.65;81.67;95526.53;4861576;29;20210;-86
2021/07/01 03:13:35;;;;;;;;;;;;;;;;;;;;;
2021/07/01 03:30:00;;;;;;;;;;;;;;;;;;;;;
2021/07/01 03:42:20;;;;;;;;;;;;;;;;;;;;;
2021/07/01 03:48:50;;;;;;;;;;;;;;;;;;;;;
2021/07/01 04:02:20;;;;;;;1.60;1.30;;;;;;;15.83;80.19;95541.41;4890409;29;20218;-84
2021/07/01 04:05:27;;;;;;;1.30;1.20;;;;;;;15.74;81.50;95534.91;4929805;29;20299;-84
2021/07/01 04:15:58;;;;;;;;;;;;;;;;;;;;;
2021/07/01 04:18:33;;;;;;;1.30;1.20;;;;;;;15.51;84.16;95545.78;4800826;29;20222;-85
2021/07/01 04:29:21;;;;;;;;;;;;;;;;;;;;;
2021/07/01 04:35:56;;;;;;;1.60;1.50;;;;;;;15.46;82.51;95548.97;4838793;29;20205;-84
2021/07/01 04:38:41;;;;;;;1.37;1.27;;;;;;;15.59;82.65;95542.19;4801920;29;20735;-85
2021/07/01 04:44:42;;;;;;;1.47;1.37;;;;;;;15.64;80.99;95547.53;4830058;29;20397;-84
2021/07/01 04:49:52;;;;;;;1.53;1.43;;;;;;;15.63;80.49;95551.13;4968926;28;20583;-83
2021/07/01 04:52:22;;;;;;;1.80;1.57;;;;;;;15.52;80.23;95555.94;4967845;28;20204;-88
2021/07/01 04:54:57;;;;;;;2.10;2.00;;;;;;;15.59;80.43;95548.13;4970488;28;20239;-83
2021/07/01 04:57:27;;;;;;;5.03;4.57;;;;;;;15.64;80.99;95547.53;4965840;23;20220;-85
2021/07/01 04:59:55;;;;;;;2.20;2.00;;;;;;;15.57;81.09;95550.16;4976412;28;20206;-82
2021/07/01 05:02:24;;;;;;;1.97;1.87;;;;;;;15.63;80.96;95553.72;4976690;28;20207;-85
2021/07/01 05:05:03;;;;;;;1.80;1.70;;;;;;;15.49;81.32;95552.97;4976168;28;20208;-84
2021/07/01 05:07:34;;;;;;;1.80;1.70;;;;;;;15.52;80.65;95557.75;4976606;28;20235;-83
2021/07/01 05:10:05;;;;;;;2.60;1.60;;;;;;;15.51;82.53;95564.72;4975603;28;20200;-85
2021/07/01 05:12:59;;;;;;;1.87;1.53;;;;;;;15.62;81.92;95563.28;4976248;28;20208;-84
2021/07/01 05:15:29;;;;;;;2.53;1.67;;;;;;;15.57;82.25;95567.53;4969084;28;20196;-84
2021/07/01 05:18:00;;;;;;;2.30;1.87;;;;;;;15.61;82.57;95566.09;4977479;28;20599;-85
2021/07/01 05:23:27;;;;;;;1.60;1.50;;;;;;;15.29;84.76;95573.81;4975980;28;20239;-85
2021/07/01 05:25:54;;;;;;;1.80;1.47;;;;;;;15.48;84.77;95566.94;4977116;28;20206;-84
2021/07/01 05:28:22;;;;;;;1.50;1.40;;;;;;;15.52;84.33;95570.72;4976162;28;20319;-85
2021/07/01 05:30:52;;;;;;;1.60;1.50;;;;;;;15.58;84.69;95569.94;4976702;28;20275;-83
2021/07/01 05:33:24;;;;;;;1.70;1.60;;;;;;;15.49;84.57;95568.53;4976361;28;20294;-85
2021/07/01 05:35:52;;;;;;;1.70;1.60;;;;;;;15.49;85.61;95573.72;4976772;28;20197;-86
2021/07/01 05:38:33;;;;;;;13.57;10.37;;;;;;;15.52;85.49;95576.72;4976186;28;21304;-84
2021/07/01 05:41:00;;;;;;;3.80;3.40;;;;;;;15.51;85.30;95572.53;4975779;28;20208;-83
2021/07/01 05:43:32;;;;;;;2.40;1.93;;;;;;;15.59;84.97;95570.72;4978912;28;20235;-84
2021/07/01 05:46:08;;;;;;;2.30;1.80;;;;;;;15.61;84.29;95574.69;4976292;28;20230;-86
2021/07/01 05:48:37;;;;;;;1.80;1.43;;;;;;;15.65;83.86;95575.06;4976670;28;20310;-83
2021/07/01 05:51:08;;;;;;;1.70;1.60;;;;;;;15.64;83.99;95578.66;4964903;28;20213;-84
2021/07/01 05:53:42;;;;;;;2.27;1.70;;;;;;;15.66;84.79;95581.84;4975582;28;20283;-84
2021/07/01 05:56:21;;;;;;;1.67;1.53;;;;;;;15.76;83.50;95577.03;4970522;28;20258;-83
2021/07/01 05:58:58;;;;;;;2.03;1.43;;;;;;;15.79;83.57;95576.56;4985771;28;20208;-87
2021/07/01 06:05:13;;;;;;;1.83;1.73;;;;;;;15.72;83.32;95589.63;4929651;29;20253;-85
2021/07/01 06:08:09;;;;;;;1.90;1.80;;;;;;;15.85;83.12;95586.13;4917829;29;20236;-85
2021/07/01 06:10:43;;;;;;;2.20;2.00;;;;;;;15.79;83.21;95584.38;4973040;28;20235;-84
2021/07/01 06:13:15;;;;;;;1.65;1.55;;;;;;;15.79;83.34;95589.56;4976429;28;20212;-85
2021/07/01 06:16:07;;;;;;;1.77;1.60;;;;;;;15.69;83.78;95590.03;4975802;28;20272;-86
2021/07/01 06:18:38;;;;;;;1.85;1.63;;;;;;;15.69;83.74;95595.22;4929053;29;20211;-85
2021/07/01 06:21:12;;;;;;;1.50;1.40;;;;;;;15.67;84.26;95591.22;4972003;28;20683;-85
2021/07/01 06:23:46;;;;;;;2.03;1.83;;;;;;;15.63;84.52;95592.66;4976393;28;20207;-83
2021/07/01 06:26:42;;;;;;;2.00;1.80;;;;;;;15.69;84.50;95597.00;4973529;28;20219;-84
2021/07/01 06:29:15;;;;;;;2.17;1.80;;;;;;;15.72;83.88;95586.22;4967647;28;20228;-84
2021/07/01 06:31:42;;;;;;;1.93;1.80;;;;;;;15.73;83.87;95599.00;4975534;28;20211;-84
2021/07/01 06:34:13;;;;;;;2.20;2.00;;;;;;;15.76;83.86;95590.78;4975460;28;20218;-86
2021/07/01 06:36:50;;;;;;;2.73;1.90;;;;;;;15.79;83.70;95597.34;4975944;28;20300;-84
2021/07/01 06:39:22;;;;;;;1.90;1.80;;;;;;;15.79;83.90;95602.53;4974756;28;20204;-82
2021/07/01 06:41:53;;;;;;;2.00;1.90;;;;;;;15.90;83.02;95599.28;4975553;28;20251;-86
2021/07/01 06:44:24;;;;;;;2.20;2.00;;;;;;;15.86;82.94;95590.31;4974210;28;20516;-84
2021/07/01 06:46:53;;;;;;;2.30;2.20;;;;;;;15.82;83.07;95602.13;4975341;28;20312;-85
2021/07/01 06:49:23;;;;;;;2.30;2.10;;;;;;;15.89;83.30;95605.50;4976875;28;20283;-85
2021/07/01 06:51:55;;;;;;;2.20;2.00;;;;;;;15.89;83.40;95606.28;4973714;28;20211;-83
2021/07/01 06:54:22;;;;;;;5.35;2.10;;;;;;;15.79;83.50;95608.53;4974617;28;20570;-84
2021/07/01 06:56:50;;;;;;;2.10;2.00;;;;;;;15.77;84.49;95617.56;4974231;28;20244;-82
2021/07/01 06:59:46;;;;;;;2.20;2.00;;;;;;;15.68;84.04;95611.78;4975282;28;20204;-85
2021/07/01 07:02:15;;;;;;;2.40;1.83;;;;;;;15.71;84.19;95613.19;4972446;28;20218;-84
2021/07/01 07:04:45;;;;;;;2.00;1.73;;;;;;;15.83;83.62;95614.09;4975729;28;20691;-83
2021/07/01 07:07:15;;;;;;;5.55;5.13;;;;;;;15.83;84.24;95619.31;4974385;28;20224;-84
2021/07/01 07:09:47;;;;;;;2.47;2.27;;;;;;;15.86;83.86;95619.69;4975653;28;20220;-84
2021/07/01 07:12:13;;;;;;;1.83;1.70;;;;;;;15.79;83.49;95620.72;4974040;28;20247;-85
2021/07/01 07:21:08;;;;;;;1.70;1.60;;;;;;;15.96;83.54;95621.84;4973022;28;20204;-85
2021/07/01 07:23:41;;;;;;;1.50;1.40;;;;;;;16.01;83.95;95631.59;4973802;28;20741;-83
2021/07/01 07:27:12;;;;;;;1.50;1.40;;;;;;;15.91;83.88;95621.66;4977396;28;20239;-84
2021/07/01 07:29:54;;;;;;;1.97;1.20;;;;;;;15.99;84.17;95631.78;4976848;28;20759;-84
2021/07/01 07:32:31;;;;;;;1.43;1.33;;;;;;;16.08;83.40;95621.97;4976623;28;20274;-84
2021/07/01 07:35:39;;;;;;;;;;;;;;;;;;;;;
2021/07/01 07:38:21;;;;;;;1.70;1.25;;;;;;;16.07;82.84;95623.75;4896740;29;20225;-85
2021/07/01 07:41:10;;;;;;;1.40;1.30;;;;;;;16.11;83.84;95621.53;4954291;28;20687;-84
2021/07/01 07:50:05;;;;;;;2.20;1.67;;;;;;;16.30;82.82;95623.22;4937037;29;20765;-85
2021/07/01 07:52:59;;;;;;;1.37;1.10;;;;;;;16.31;82.18;95619.59;4935914;29;20232;-85
2021/07/01 07:55:30;;;;;;;1.00;1.00;;;;;;;16.14;81.73;95616.72;4956378;28;20232;-84
2021/07/01 07:58:27;;;;;;;;;;;;;;;;;;;;;
2021/07/01 08:01:05;;;;;;;1.27;1.20;;;;;;;16.11;81.80;95624.16;4954011;28;20287;-84
2021/07/01 08:03:48;;;;;;;1.10;1.10;;;;;;;16.11;82.99;95621.53;4977876;28;20605;-84
2021/07/01 08:06:35;;;;;;;;;;;;;;;;;;;;;
2021/07/01 08:12:33;;;;;;;0.90;0.90;;;;;;;15.83;83.76;95633.06;4919913;28;20212;-85
2021/07/01 08:15:31;;;;;;;0.95;0.93;;;;;;;15.81;85.04;95631.69;4975239;28;20765;-83
2021/07/01 08:18:06;;;;;;;1.00;1.00;;;;;;;15.85;84.93;95628.47;4975047;28;20744;-83
2021/07/01 08:20:47;;;;;;;1.20;1.10;;;;;;;15.77;84.76;95626.13;4975843;28;20199;-84
2021/07/01 08:23:41;;;;;;;;;;;;;;;;;;;;;
2021/07/01 08:26:19;;;;;;;0.93;0.93;;;;;;;15.96;83.95;95631.44;4969472;28;20224;-84
2021/07/01 08:28:54;;;;;;;1.63;1.53;;;;;;;16.08;82.48;95622.75;4975727;28;20250;-83
2021/07/01 08:31:27;;;;;;;2.80;1.90;;;;;;;16.29;81.75;95632.00;4974695;28;20553;-85
2021/07/01 08:34:09;;;;;;;1.73;1.27;;;;;;;16.26;81.11;95629.84;4974354;28;20211;-85
2021/07/01 08:36:45;;;;;;;2.60;1.50;;;;;;;16.24;80.99;95630.03;4974198;28;20291;-84
2021/07/01 08:39:12;;;;;;;1.30;1.20;;;;;;;16.16;80.88;95624.31;4973568;28;20215;-83
2021/07/01 08:41:45;;;;;;;1.30;1.20;;;;;;;16.24;80.83;95632.63;4979402;28;20208;-83
2021/07/01 08:44:26;;;;;;;1.50;1.40;;;;;;;16.22;79.93;95628.66;4974310;28;20536;-83
2021/07/01 08:47:15;;;;;;;1.30;1.30;;;;;;;16.20;80.22;95631.47;4955987;28;20596;-86
2021/07/01 08:49:54;;;;;;;1.33;1.23;;;;;;;16.18;80.89;95635.28;4980944;28;20220;-86
2021/07/01 08:52:37;;;;;;;1.40;1.30;;;;;;;16.21;80.22;95632.25;4984646;28;20218;-82
2021/07/01 08:55:17;;;;;;;1.60;1.50;;;;;;;16.34;80.98;95631.38;4977186;28;20207;-84
2021/07/01 08:58:02;;;;;;;1.58;1.38;;;;;;;16.43;79.97;95635.31;4975211;28;20232;-84
2021/07/01 09:00:40;;;;;;;1.48;1.38;;;;;;;16.51;80.00;95641.06;4976949;28;20484;-83
2021/07/01 09:03:26;;;;;;;2.20;1.70;;;;;;;16.52;80.11;95639.25;4973938;28;20207;-85
2021/07/01 09:08:51;;;;;;;1.45;1.33;;;;;;;16.62;79.94;95646.56;4976465;28;20208;-83
2021/07/01 09:11:43;;;;;;;1.70;1.60;;;;;;;16.58;80.21;95635.78;4968307;28;20196;-84
2021/07/01 09:14:32;;;;;;;1.90;1.70;;;;;;;16.45;80.94;95635.91;4975991;28;20668;-84
2021/07/01 09:17:19;;;;;;;1.98;1.75;;;;;;;16.33;82.55;95640.19;4973824;28;20228;-86
2021/07/01 09:20:13;;;;;;;1.70;1.60;;;;;;;16.48;82.98;95644.06;4975643;28;20200;-85
2021/07/01 09:25:36;;;;;;;2.00;1.80;;;;;;;16.58;84.15;95648.78;4930429;29;20264;-87
2021/07/01 09:28:32;;;;;;;2.00;1.80;;;;;;;16.71;82.67;95645.31;4949921;28;20683;-85
2021/07/01 09:31:03;;;;;;;1.92;1.83;;;;;;;16.80;83.33;95646.63;4974467;28;20642;-85
2021/07/01 09:33:35;;;;;;;2.20;2.00;;;;;;;16.90;83.07;95645.16;4976746;28;20831;-85
2021/07/01 09:36:08;;;;;;;2.15;1.90;;;;;;;16.90;87.31;95650.34;4977186;28;20212;-87
2021/07/01 09:38:36;;;;;;;2.10;1.90;;;;;;;16.84;86.38;95653.00;4977394;28;20651;-85
2021/07/01 09:41:13;;;;;;;2.40;2.20;;;;;;;16.87;85.99;95655.97;4975514;28;20774;-87
2021/07/01 09:43:42;;;;;;;7.05;6.43;;;;;;;16.88;88.50;95656.78;4976121;28;20207;-84
2021/07/01 09:46:31;;;;;;;4.25;3.58;;;;;;;16.99;86.22;95652.66;4997201;28;20227;-86
2021/07/01 09:49:09;;;;;;;2.35;2.15;;;;;;;17.12;84.31;95653.34;5000381;28;20223;-85
2021/07/01 09:51:58;;;;;;;;;;;;;;;;;;;;;
2021/07/01 09:54:35;;;;;;;2.70;1.90;;;;;;;17.23;81.56;95654.44;4977929;28;20280;-85
2021/07/01 09:57:32;;;;;;;;;;;;;;;;;;;;;
2021/07/01 10:00:29;;;;;;;;;;;;;;;;;;;;;
2021/07/01 10:03:12;;;;;;;2.10;1.90;;;;;;;17.41;78.60;95653.66;4958458;29;20600;-87
2021/07/01 10:05:41;;;;;;;2.20;2.00;;;;;;;17.45;79.61;95658.22;4977435;28;20214;-85
2021/07/01 10:08:12;;;;;;;1.90;1.80;;;;;;;17.56;77.58;95646.25;4977912;28;20214;-84
2021/07/01 10:10:47;;;;;;;1.75;1.65;;;;;;;17.61;76.61;95646.41;4978064;28;20717;-85
2021/07/01 10:13:15;;;;;;;4.03;3.67;;;;;;;17.65;77.01;95639.78;4977079;28;20259;-86
2021/07/01 10:15:43;;;;;;;2.40;2.20;;;;;;;17.66;75.79;95641.38;4975740;28;20239;-85
2021/07/01 10:18:14;;;;;;;2.33;1.63;;;;;;;17.66;74.28;95643.97;4976903;28;20204;-85
2021/07/01 10:20:42;;;;;;;2.47;1.60;;;;;;;17.66;74.89;95640.59;4956471;28;20291;-86
2021/07/01 10:23:20;;;;;;;1.80;1.70;;;;;;;17.54;73.87;95656.09;4956721;28;20205;-86
2021/07/01 10:25:54;;;;;;;2.20;1.60;;;;;;;17.49;74.80;95643.75;4975004;28;20188;-85
2021/07/01 10:28:23;;;;;;;1.60;1.50;;;;;;;17.58;75.08;95652.84;4975193;28;20204;-85
2021/07/01 10:30:57;;;;;;;1.73;1.63;;;;;;;17.58;74.36;95652.06;4974848;28;20264;-84
2021/07/01 10:33:27;;;;;;;1.75;1.45;;;;;;;17.41;75.69;95643.25;4976653;28;20226;-86
2021/07/01 10:35:58;;;;;;;1.70;1.60;;;;;;;17.43;78.08;95644.63;4974718;28;20245;-84
2021/07/01 10:38:27;;;;;;;1.55;1.45;;;;;;;17.42;78.39;95645.63;4976376;28;20200;-86
2021/07/01 10:40:58;;;;;;;1.70;1.60;;;;;;;17.46;76.57;95643.38;4975946;28;20240;-87
2021/07/01 10:43:55;;;;;;;1.60;1.50;;;;;;;17.35;77.44;95650.09;4976722;28;20208;-85
2021/07/01 10:46:36;;;;;;;1.60;1.50;;;;;;;17.32;77.34;95644.56;4975807;28;20228;-86
2021/07/01 10:49:05;;;;;;;1.63;1.52;;;;;;;17.39;78.05;95643.44;4978281;28;20200;-85
2021/07/01 10:51:33;;;;;;;1.70;1.60;;;;;;;17.59;77.77;95643.22;4976313;28;20204;-83
2021/07/01 10:54:13;;;;;;;1.75;1.65;;;;;;;17.81;77.37;95638.38;4979088;28;20214;-85
2021/07/01 10:56:43;;;;;;;1.85;1.73;;;;;;;17.84;76.10;95638.75;4976999;28;20264;-86
2021/07/01 10:59:13;;;;;;;1.60;1.50;;;;;;;17.81;74.88;95633.97;4979476;28;20208;-87
2021/07/01 11:01:44;;;;;;;1.65;1.55;;;;;;;17.86;74.90;95635.91;4978608;28;20200;-87
2021/07/01 11:04:13;;;;;;;1.70;1.60;;;;;;;17.91;73.94;95633.44;4977987;28;20211;-84
2021/07/01 11:06:41;;;;;;;4.63;2.22;;;;;;;18.06;75.03;95640.88;4978250;28;20310;-85
2021/07/01 11:09:15;;;;;;;2.10;2.00;;;;;;;18.14;73.44;95638.72;4978523;28;20200;-84
2021/07/01 11:11:48;;;;;;;2.45;2.25;;;;;;;18.23;72.76;95634.00;4976019;28;20198;-86
2021/07/01 11:14:17;;;;;;;3.67;2.13;;;;;;;18.38;72.86;95637.00;4978378;28;20226;-84
2021/07/01 11:16:46;;;;;;;2.53;2.10;;;;;;;18.49;73.04;95635.41;4974656;28;20739;-83
2021/07/01 11:19:17;;;;;;;2.53;2.33;;;;;;;18.44;71.97;95636.09;4975784;28;20258;-88
2021/07/01 11:21:58;;;;;;;3.50;3.20;;;;;;;18.41;72.65;95631.34;4973965;28;20196;-84
2021/07/01 11:24:27;;;;;;;2.17;2.00;;;;;;;18.39;72.96;95628.16;4972345;28;20207;-84
2021/07/01 11:26:57;;;;;;;2.67;2.45;;;;;;;18.38;73.71;95638.78;4974670;28;20783;-82
2021/07/01 11:29:37;;;;;;;2.65;2.20;;;;;;;18.18;69.90;95629.47;4976484;28;20295;-82
2021/07/01 11:32:24;;;;;;;2.10;2.00;;;;;;;18.15;71.38;95629.91;4977230;28;20200;-83
2021/07/01 11:34:57;;;;;;;2.25;2.05;;;;;;;18.09;71.74;95625.56;4970449;28;20243;-84
2021/07/01 11:37:33;;;;;;;2.33;2.00;;;;;;;18.12;71.40;95627.72;4976321;28;20223;-85
2021/07/01 11:40:11;;;;;;;2.30;2.13;;;;;;;18.19;71.47;95633.66;4978251;28;20299;-85
2021/07/01 11:42:41;;;;;;;2.88;2.40;;;;;;;18.03;71.89;95629.06;4978010;28;20188;-82
2021/07/01 11:45:21;;;;;;;2.58;2.05;;;;;;;17.99;72.32;95635.75;4977564;28;20218;-84
2021/07/01 11:47:52;;;;;;;2.40;2.20;;;;;;;18.05;72.60;95629.66;4976979;28;20212;-84
2021/07/01 11:50:20;;;;;;;2.78;2.58;;;;;;;18.21;72.88;95633.44;4975299;28;20222;-84
2021/07/01 11:52:47;;;;;;;3.40;2.33;;;;;;;18.30;72.41;95632.09;4969749;28;20210;-85
2021/07/01 11:55:15;;;;;;;2.67;2.30;;;;;;;18.34;71.15;95630.63;4973399;28;20291;-83
2021/07/01 11:57:42;;;;;;;2.50;2.30;;;;;;;18.33;71.07;95633.44;4975314;28;20232;-83
2021/07/01 12:00:09;;;;;;;2.38;2.17;;;;;;;18.29;69.68;95627.88;4976449;28;20312;-85
2021/07/01 12:02:37;;;;;;;3.28;2.40;;;;;;;18.23;70.11;95626.97;4976349;28;20208;-83
2021/07/01 12:05:12;;;;;;;2.53;2.33;;;;;;;18.35;70.30;95626.19;4976789;28;20232;-82
2021/07/01 12:07:43;;;;;;;2.40;2.20;;;;;;;18.34;69.75;95625.41;4976503;28;20251;-84
2021/07/01 12:10:17;;;;;;;3.10;2.80;;;;;;;18.21;70.22;95626.41;4975870;28;20219;-86
2021/07/01 12:12:45;;;;;;;4.53;2.92;;;;;;;18.14;70.29;95628.31;4977734;28;20210;-81
2021/07/01 12:15:13;;;;;;;8.43;7.63;;;;;;;18.07;71.85;95627.63;4975633;28;20231;-84
2021/07/01 12:17:51;;;;;;;3.95;3.65;;;;;;;18.01;73.18;95623.28;4976453;28;20306;-83
2021/07/01 12:20:30;;;;;;;3.30;3.00;;;;;;;17.87;75.04;95630.50;4976044;28;20698;-84
2021/07/01 12:22:56;;;;;;;3.80;3.30;;;;;;;17.66;77.55;95624.97;4976435;28;20204;-84
2021/07/01 12:25:46;;;;;;;3.15;2.95;;;;;;;17.83;79.63;95624.13;4976059;28;20204;-82
2021/07/01 12:28:17;;;;;;;3.10;2.90;;;;;;;17.89;79.81;95622.47;4965766;28;20200;-84
2021/07/01 12:30:57;;;;;;;3.17;2.83;;;;;;;17.83;80.88;95621.53;4976964;28;20223;-84
2021/07/01 12:33:38;;;;;;;2.85;2.60;;;;;;;18.00;79.74;95626.91;4977637;28;20295;-85
2021/07/01 12:36:14;;;;;;;2.67;2.47;;;;;;;18.22;80.46;95627.22;4976956;28;20263;-84
2021/07/01 12:39:02;;;;;;;2.38;1.98;;;;;;;18.26;74.15;95623.94;4977152;28;20212;-84
2021/07/01 12:41:35;;;;;;;1.92;1.83;;;;;;;18.18;72.10;95637.28;4976725;28;20282;-85
2021/07/01 12:44:19;;;;;;;1.98;1.88;;;;;;;18.13;71.63;95623.31;4975943;28;20208;-85
2021/07/01 12:47:12;;;;;;;2.00;1.90;;;;;;;18.19;72.01;95632.84;4975862;28;20239;-83
2021/07/01 12:49:59;;;;;;;2.25;2.03;;;;;;;18.03;70.78;95628.28;4976082;28;20254;-83
2021/07/01 12:52:44;;;;;;;2.00;1.90;;;;;;;18.06;71.52;95633.84;4975770;28;20215;-82
2021/07/01 12:55:23;;;;;;;2.05;1.85;;;;;;;18.21;72.18;95634.22;4976634;28;20286;-84
2021/07/01 12:57:52;;;;;;;2.08;1.98;;;;;;;18.20;71.55;95642.28;4976120;28;20638;-84
2021/07/01 13:00:34;;;;;;;2.00;1.70;;;;;;;18.12;71.25;95634.75;4976845;28;20295;-83
2021/07/01 13:03:05;;;;;;;2.10;1.90;;;;;;;17.94;72.06;95640.81;4973584;28;20192;-85
2021/07/01 13:05:38;;;;;;;2.13;1.83;;;;;;;17.87;74.42;95642.72;4975813;28;20220;-84
2021/07/01 13:08:06;;;;;;;2.10;1.90;;;;;;;17.75;74.84;95637.44;4977004;28;20299;-84
2021/07/01 13:10:34;;;;;;;2.05;1.95;;;;;;;17.88;76.83;95646.91;4978287;28;20251;-81
2021/07/01 13:13:02;;;;;;;2.70;2.50;;;;;;;17.88;77.48;95642.50;4982810;28;20571;-83
2021/07/01 13:15:30;;;;;;;3.85;2.05;;;;;;;17.97;77.47;95634.38;4990916;28;20199;-85
2021/07/01 13:18:00;;;;;;;3.67;1.90;;;;;;;18.01;76.90;95644.13;4992353;28;20247;-85
2021/07/01 13:20:27;;;;;;;1.95;1.77;;;;;;;18.14;76.04;95640.53;4992632;28;20714;-84
2021/07/01 13:22:53;;;;;;;4.40;1.77;;;;;;;18.21;76.12;95651.69;4992692;28;20585;-85
2021/07/01 13:25:22;;;;;;;1.98;1.88;;;;;;;18.15;76.86;95642.94;4980514;28;20228;-82
2021/07/01 13:27:53;;;;;;;2.05;1.70;;;;;;;18.11;76.05;95652.19;4978784;28;20235;-84
2021/07/01 13:30:30;;;;;;;1.75;1.65;;;;;;;18.04;75.15;95648.91;4979944;28;20238;-85
2021/07/01 13:33:00;;;;;;;2.35;1.80;;;;;;;18.17;76.12;95655.75;4979588;28;20263;-82
2021/07/01 13:35:29;;;;;;;1.92;1.63;;;;;;;18.09;75.16;95656.84;4977106;28;20196;-81
2021/07/01 13:37:58;;;;;;;2.13;1.75;;;;;;;18.12;75.65;95647.78;4968743;28;20220;-82
2021/07/01 13:40:32;;;;;;;1.80;1.70;;;;;;;18.27;74.20;95651.59;4973058;28;20278;-83
2021/07/01 13:43:09;;;;;;;2.00;1.90;;;;;;;18.36;73.11;95659.06;4972439;28;20201;-82
2021/07/01 13:45:38;;;;;;;4.13;2.00;;;;;;;18.30;73.29;95661.56;4967746;28;20259;-86
2021/07/01 13:48:09;;;;;;;2.15;1.95;;;;;;;18.39;73.93;95656.03;4972519;28;20220;-84
2021/07/01 13:50:51;;;;;;;1.92;1.77;;;;;;;18.56;72.22;95654.38;4973221;28;20224;-84
2021/07/01 13:53:22;;;;;;;2.20;2.00;;;;;;;18.46;71.10;95660.13;4976573;28;20234;-81
2021/07/01 13:55:53;;;;;;;2.25;2.05;;;;;;;18.32;71.63;95653.50;4973091;28;20286;-84
2021/07/01 13:58:21;;;;;;;2.47;2.28;;;;;;;18.26;72.27;95657.81;4973116;28;20219;-84
2021/07/01 14:00:54;;;;;;;2.17;1.98;;;;;;;18.33;72.34;95657.72;4972303;28;20200;-87
2021/07/01 14:03:22;;;;;;;2.95;1.95;;;;;;;18.34;72.84;95648.06;4954432;28;20256;-85
2021/07/01 14:05:56;;;;;;;2.17;2.08;;;;;;;18.23;72.29;95662.69;4979692;28;20796;-83
2021/07/01 14:08:31;;;;;;;2.47;2.28;;;;;;;18.02;72.55;95653.53;4974527;28;20208;-85
2021/07/01 14:11:03;;;;;;;4.25;2.75;;;;;;;18.01;73.74;95651.16;4972073;28;20247;-86
2021/07/01 14:13:35;;;;;;;2.40;2.20;;;;;;;18.03;73.97;95649.13;4973039;28;20224;-86
2021/07/01 14:16:06;;;;;;;3.88;2.40;;;;;;;17.83;73.58;95637.16;4971977;28;20215;-83
2021/07/01 14:18:34;;;;;;;2.35;2.10;;;;;;;17.81;74.30;95648.81;4973955;28;20247;-86
2021/07/01 14:21:00;;;;;;;2.90;2.13;;;;;;;17.83;75.41;95644.16;4972942;28;20770;-85
2021/07/01 14:23:31;;;;;;;2.40;2.20;;;;;;;17.80;74.83;95655.03;4973496;28;20204;-84
2021/07/01 14:26:22;;;;;;;2.25;2.05;;;;;;;17.74;74.80;95655.88;4973189;28;20235;-82
2021/07/01 14:29:04;;;;;;;2.90;2.55;;;;;;;17.47;79.56;95684.81;4974232;28;20231;-85
2021/07/01 14:31:37;;;;;;;2.67;2.47;;;;;;;17.09;83.97;95690.22;4972595;28;20250;-83
2021/07/01 14:34:04;;;;;;;2.40;2.20;;;;;;;17.11;83.36;95687.41;4975302;28;20205;-85
2021/07/01 14:36:32;;;;;;;16.60;14.38;;;;;;;17.07;86.03;95696.63;4974955;28;20621;-83
2021/07/01 14:39:01;;;;;;;4.03;2.92;;;;;;;16.84;84.24;95699.81;4974319;28;20200;-85
2021/07/01 14:41:29;;;;;;;2.60;2.40;;;;;;;16.56;86.78;95687.97;4974983;28;20210;-83
2021/07/01 14:43:59;;;;;;;2.88;2.33;;;;;;;16.53;87.38;95692.81;4974436;28;20369;-82
2021/07/01 14:46:35;;;;;;;2.13;2.03;;;;;;;16.49;88.62;95699.44;4974129;28;20251;-84
2021/07/01 14:49:18;;;;;;;2.28;2.08;;;;;;;16.53;87.62;95696.22;4975559;28;20210;-85
2021/07/01 14:51:47;;;;;;;2.85;2.00;;;;;;;16.49;87.39;95691.66;4975258;28;20319;-86
2021/07/01 14:54:19;;;;;;;2.97;2.38;;;;;;;16.55;90.21;95685.59;4973839;28;20239;-85
2021/07/01 14:57:00;;;;;;;3.10;2.40;;;;;;;16.64;90.24;95684.38;4973720;28;20311;-84
2021/07/01 14:59:50;;;;;;;2.83;2.63;;;;;;;16.72;90.05;95681.53;4974133;28;20208;-86
2021/07/01 15:02:28;;;;;;;2.92;2.55;;;;;;;16.80;88.67;95680.44;4973029;28;20211;-86
2021/07/01 15:05:05;;;;;;;3.45;2.60;;;;;;;16.89;88.07;95682.56;4974407;28;20208;-85
2021/07/01 15:07:37;;;;;;;4.60;3.25;;;;;;;17.00;89.73;95680.28;4973081;28;20815;-85
2021/07/01 15:10:08;;;;;;;3.45;3.10;;;;;;;17.04;91.97;95686.66;4972803;28;20730;-86
2021/07/01 15:12:35;;;;;;;3.28;2.85;;;;;;;17.12;88.85;95687.19;4972196;28;20228;-85
2021/07/01 15:15:13;;;;;;;4.32;3.92;;;;;;;17.14;91.07;95681.72;4952812;28;20205;-86
2021/07/01 15:17:43;;;;;;;3.53;3.22;;;;;;;17.10;89.23;95684.00;4953056;29;20220;-86
2021/07/01 15:20:12;;;;;;;3.95;3.50;;;;;;;17.18;89.40;95691.50;4952929;29;20204;-85
2021/07/01 15:22:41;;;;;;;4.57;4.03;;;;;;;17.10;89.24;95686.59;4953588;29;20621;-84
2021/07/01 15:25:12;;;;;;;5.57;4.32;;;;;;;17.22;89.75;95684.06;4956562;28;20278;-86
2021/07/01 15:27:39;;;;;;;3.70;3.40;;;;;;;17.14;90.92;95684.34;4972997;28;20228;-85
2021/07/01 15:30:09;;;;;;;4.32;3.92;;;;;;;17.21;90.35;95687.69;4973748;28;20204;-87
2021/07/01 15:32:39;;;;;;;3.83;3.53;;;;;;;17.26;90.54;95691.25;4975916;28;20220;-86
2021/07/01 15:35:10;;;;;;;3.50;3.20;;;;;;;17.22;89.76;95687.47;4977316;28;20256;-86
2021/07/01 15:37:39;;;;;;;4.25;3.85;;;;;;;17.25;90.47;95689.66;4974986;28;20401;-87
2021/07/01 15:40:10;;;;;;;4.07;3.72;;;;;;;17.31;91.62;95685.41;4974285;28;20193;-86
2021/07/01 15:42:40;;;;;;;4.78;3.72;;;;;;;17.41;91.18;95693.50;4976464;28;20204;-86
2021/07/01 15:45:12;;;;;;;11.20;10.10;;;;;;;17.37;90.79;95687.13;4976920;28;20251;-87
2021/07/01 15:47:42;;;;;;;8.05;7.30;;;;;;;17.41;90.09;95688.28;4975311;28;20231;-86
2021/07/01 15:50:13;;;;;;;4.60;4.22;;;;;;;17.45;90.50;95694.66;4977260;28;20267;-87
2021/07/01 15:52:40;;;;;;;4.53;4.13;;;;;;;17.46;90.29;95693.66;4976867;28;20224;-85
2021/07/01 15:55:08;;;;;;;4.00;3.70;;;;;;;17.49;90.17;95692.41;4976681;28;20206;-86